sensor_id;sensor_type;location;lat;lon;timestamp;temperature;humidity
16287;DHT22;8251;53.568;10.018;2024-02-26T00:00:55;9.40;92.30
16287;DHT22;8251;53.568;10.018;2024-02-26T00:03:22;9.40;92.30
16287;DHT22;8251;53.568;10.018;2024-02-26T00:05:52;9.40;92.30
16287;DHT22;8251;53.568;10.018;2024-02-26T00:08:20;9.30;92.30
16287;DHT22;8251;53.568;10.018;2024-02-26T00:10:54;9.30;92.30
16287;DHT22;8251;53.568;10.018;2024-02-26T00:13:21;9.20;92.30
16287;DHT22;8251;53.568;10.018;2024-02-26T00:15:48;9.20;92.40
16287;DHT22;8251;53.568;10.018;2024-02-26T00:18:16;9.20;92.40
16287;DHT22;8251;53.568;10.018;2024-02-26T00:20:44;9.10;92.40
16287;DHT22;8251;53.568;10.018;2024-02-26T00:23:11;9.10;92.50
16287;DHT22;8251;53.568;10.018;2024-02-26T00:25:38;9.10;92.50
16287;DHT22;8251;53.568;10.018;2024-02-26T00:28:05;9.10;92.60
16287;DHT22;8251;53.568;10.018;2024-02-26T00:30:35;9.10;92.70
16287;DHT22;8251;53.568;10.018;2024-02-26T00:33:02;9.10;92.70
16287;DHT22;8251;53.568;10.018;2024-02-26T00:35:31;9.20;92.80
16287;DHT22;8251;53.568;10.018;2024-02-26T00:37:58;9.20;92.80
16287;DHT22;8251;53.568;10.018;2024-02-26T00:40:32;9.20;92.80
16287;DHT22;8251;53.568;10.018;2024-02-26T00:43:05;9.10;92.70
16287;DHT22;8251;53.568;10.018;2024-02-26T00:45:32;9.10;92.50
16287;DHT22;8251;53.568;10.018;2024-02-26T00:48:01;9.00;92.50
16287;DHT22;8251;53.568;10.018;2024-02-26T00:51:00;9.00;92.40
16287;DHT22;8251;53.568;10.018;2024-02-26T00:53:30;9.00;92.30
16287;DHT22;8251;53.568;10.018;2024-02-26T00:56:08;8.90;92.40
16287;DHT22;8251;53.568;10.018;2024-02-26T00:58:35;8.90;92.40
16287;DHT22;8251;53.568;10.018;2024-02-26T01:01:05;8.90;92.50
16287;DHT22;8251;53.568;10.018;2024-02-26T01:03:35;8.90;92.60
16287;DHT22;8251;53.568;10.018;2024-02-26T01:06:04;8.80;92.50
16287;DHT22;8251;53.568;10.018;2024-02-26T01:08:34;8.80;92.50
16287;DHT22;8251;53.568;10.018;2024-02-26T01:11:03;8.80;92.60
16287;DHT22;8251;53.568;10.018;2024-02-26T01:13:30;8.80;92.60
16287;DHT22;8251;53.568;10.018;2024-02-26T01:15:57;8.70;92.50
16287;DHT22;8251;53.568;10.018;2024-02-26T01:18:53;8.80;92.50
16287;DHT22;8251;53.568;10.018;2024-02-26T01:21:23;8.70;92.40
16287;DHT22;8251;53.568;10.018;2024-02-26T01:23:52;8.70;92.40
16287;DHT22;8251;53.568;10.018;2024-02-26T01:26:19;8.60;92.40
16287;DHT22;8251;53.568;10.018;2024-02-26T01:28:48;8.60;92.40
16287;DHT22;8251;53.568;10.018;2024-02-26T01:31:18;8.60;92.30
16287;DHT22;8251;53.568;10.018;2024-02-26T01:33:47;8.60;92.30
16287;DHT22;8251;53.568;10.018;2024-02-26T01:36:14;8.50;92.30
16287;DHT22;8251;53.568;10.018;2024-02-26T01:38:42;8.50;92.30
16287;DHT22;8251;53.568;10.018;2024-02-26T01:41:10;8.50;92.40
16287;DHT22;8251;53.568;10.018;2024-02-26T01:43:40;8.40;92.40
16287;DHT22;8251;53.568;10.018;2024-02-26T01:46:12;8.40;92.50
16287;DHT22;8251;53.568;10.018;2024-02-26T01:48:40;8.40;92.50
16287;DHT22;8251;53.568;10.018;2024-02-26T01:51:08;8.40;92.50
16287;DHT22;8251;53.568;10.018;2024-02-26T01:53:35;8.40;92.50
16287;DHT22;8251;53.568;10.018;2024-02-26T01:56:06;8.30;92.50
16287;DHT22;8251;53.568;10.018;2024-02-26T01:58:37;8.30;92.60
16287;DHT22;8251;53.568;10.018;2024-02-26T02:01:15;8.30;92.60
16287;DHT22;8251;53.568;10.018;2024-02-26T02:03:43;8.40;92.70
16287;DHT22;8251;53.568;10.018;2024-02-26T02:06:11;8.30;92.60
16287;DHT22;8251;53.568;10.018;2024-02-26T02:08:39;8.30;92.60
16287;DHT22;8251;53.568;10.018;2024-02-26T02:11:08;8.30;92.60
16287;DHT22;8251;53.568;10.018;2024-02-26T02:13:37;8.30;92.60
16287;DHT22;8251;53.568;10.018;2024-02-26T02:16:04;8.30;92.70
16287;DHT22;8251;53.568;10.018;2024-02-26T02:18:34;8.30;92.70
16287;DHT22;8251;53.568;10.018;2024-02-26T02:21:04;8.30;92.70
16287;DHT22;8251;53.568;10.018;2024-02-26T02:23:34;8.30;92.80
16287;DHT22;8251;53.568;10.018;2024-02-26T02:26:04;8.20;92.70
16287;DHT22;8251;53.568;10.018;2024-02-26T02:28:32;8.20;92.70
16287;DHT22;8251;53.568;10.018;2024-02-26T02:30:59;8.20;92.60
16287;DHT22;8251;53.568;10.018;2024-02-26T02:33:35;8.20;92.60
16287;DHT22;8251;53.568;10.018;2024-02-26T02:36:04;8.20;92.60
16287;DHT22;8251;53.568;10.018;2024-02-26T02:38:49;8.10;92.60
16287;DHT22;8251;53.568;10.018;2024-02-26T02:41:24;8.10;92.50
16287;DHT22;8251;53.568;10.018;2024-02-26T02:43:54;8.10;92.60
16287;DHT22;8251;53.568;10.018;2024-02-26T02:46:22;8.10;92.80
16287;DHT22;8251;53.568;10.018;2024-02-26T02:49:01;8.10;92.80
16287;DHT22;8251;53.568;10.018;2024-02-26T02:51:33;8.10;92.80
16287;DHT22;8251;53.568;10.018;2024-02-26T02:54:00;8.10;92.80
16287;DHT22;8251;53.568;10.018;2024-02-26T02:56:30;8.10;92.80
16287;DHT22;8251;53.568;10.018;2024-02-26T02:58:57;8.10;92.80
16287;DHT22;8251;53.568;10.018;2024-02-26T03:01:24;8.10;92.80
16287;DHT22;8251;53.568;10.018;2024-02-26T03:03:51;8.10;92.70
16287;DHT22;8251;53.568;10.018;2024-02-26T03:06:21;8.10;92.50
16287;DHT22;8251;53.568;10.018;2024-02-26T03:08:50;8.10;92.50
16287;DHT22;8251;53.568;10.018;2024-02-26T03:11:17;8.00;92.50
16287;DHT22;8251;53.568;10.018;2024-02-26T03:13:45;8.00;92.60
16287;DHT22;8251;53.568;10.018;2024-02-26T03:16:16;8.00;92.60
16287;DHT22;8251;53.568;10.018;2024-02-26T03:18:47;8.00;92.60
16287;DHT22;8251;53.568;10.018;2024-02-26T03:21:14;8.00;92.50
16287;DHT22;8251;53.568;10.018;2024-02-26T03:23:41;7.90;92.60
16287;DHT22;8251;53.568;10.018;2024-02-26T03:26:14;7.90;92.60
16287;DHT22;8251;53.568;10.018;2024-02-26T03:28:42;7.90;92.70
16287;DHT22;8251;53.568;10.018;2024-02-26T03:31:12;7.90;92.70
16287;DHT22;8251;53.568;10.018;2024-02-26T03:33:40;8.00;92.70
16287;DHT22;8251;53.568;10.018;2024-02-26T03:36:10;7.90;92.70
16287;DHT22;8251;53.568;10.018;2024-02-26T03:38:37;7.90;92.60
16287;DHT22;8251;53.568;10.018;2024-02-26T03:41:04;7.90;92.60
16287;DHT22;8251;53.568;10.018;2024-02-26T03:43:35;7.90;92.60
16287;DHT22;8251;53.568;10.018;2024-02-26T03:46:11;7.90;92.50
16287;DHT22;8251;53.568;10.018;2024-02-26T03:48:39;7.90;92.60
16287;DHT22;8251;53.568;10.018;2024-02-26T03:51:09;7.80;92.50
16287;DHT22;8251;53.568;10.018;2024-02-26T03:53:36;7.80;92.50
16287;DHT22;8251;53.568;10.018;2024-02-26T03:56:04;7.80;92.40
16287;DHT22;8251;53.568;10.018;2024-02-26T03:58:31;7.80;92.40
16287;DHT22;8251;53.568;10.018;2024-02-26T04:01:03;7.80;92.40
16287;DHT22;8251;53.568;10.018;2024-02-26T04:03:31;7.80;92.80
16287;DHT22;8251;53.568;10.018;2024-02-26T04:05:58;7.80;92.60
16287;DHT22;8251;53.568;10.018;2024-02-26T04:08:25;7.80;92.60
16287;DHT22;8251;53.568;10.018;2024-02-26T04:10:55;7.70;92.50
16287;DHT22;8251;53.568;10.018;2024-02-26T04:13:22;7.70;92.50
16287;DHT22;8251;53.568;10.018;2024-02-26T04:15:50;7.70;92.50
16287;DHT22;8251;53.568;10.018;2024-02-26T04:18:21;7.70;92.50
16287;DHT22;8251;53.568;10.018;2024-02-26T04:20:48;7.70;92.50
16287;DHT22;8251;53.568;10.018;2024-02-26T04:23:20;7.70;92.60
16287;DHT22;8251;53.568;10.018;2024-02-26T04:25:52;7.70;92.50
16287;DHT22;8251;53.568;10.018;2024-02-26T04:28:19;7.70;92.50
16287;DHT22;8251;53.568;10.018;2024-02-26T04:30:50;7.70;92.50
16287;DHT22;8251;53.568;10.018;2024-02-26T04:33:17;7.70;92.50
16287;DHT22;8251;53.568;10.018;2024-02-26T04:35:52;7.70;92.40
16287;DHT22;8251;53.568;10.018;2024-02-26T04:38:19;7.70;92.50
16287;DHT22;8251;53.568;10.018;2024-02-26T04:40:49;7.70;92.50
16287;DHT22;8251;53.568;10.018;2024-02-26T04:43:16;7.60;92.50
16287;DHT22;8251;53.568;10.018;2024-02-26T04:45:45;7.60;92.50
16287;DHT22;8251;53.568;10.018;2024-02-26T04:48:15;7.70;92.50
16287;DHT22;8251;53.568;10.018;2024-02-26T04:50:42;7.70;92.50
16287;DHT22;8251;53.568;10.018;2024-02-26T04:53:11;7.60;92.40
16287;DHT22;8251;53.568;10.018;2024-02-26T04:55:38;7.60;92.50
16287;DHT22;8251;53.568;10.018;2024-02-26T04:58:08;7.60;92.40
16287;DHT22;8251;53.568;10.018;2024-02-26T05:00:36;7.60;92.40
16287;DHT22;8251;53.568;10.018;2024-02-26T05:03:04;7.60;92.40
16287;DHT22;8251;53.568;10.018;2024-02-26T05:05:32;7.60;92.50
16287;DHT22;8251;53.568;10.018;2024-02-26T05:07:59;7.60;92.40
16287;DHT22;8251;53.568;10.018;2024-02-26T05:10:37;7.50;92.30
16287;DHT22;8251;53.568;10.018;2024-02-26T05:13:06;7.50;92.30
16287;DHT22;8251;53.568;10.018;2024-02-26T05:15:34;7.50;92.40
16287;DHT22;8251;53.568;10.018;2024-02-26T05:18:02;7.50;92.40
16287;DHT22;8251;53.568;10.018;2024-02-26T05:20:31;7.50;92.50
16287;DHT22;8251;53.568;10.018;2024-02-26T05:23:01;7.40;92.50
16287;DHT22;8251;53.568;10.018;2024-02-26T05:25:29;7.40;92.50
16287;DHT22;8251;53.568;10.018;2024-02-26T05:27:58;7.50;92.50
16287;DHT22;8251;53.568;10.018;2024-02-26T05:30:28;7.50;92.40
16287;DHT22;8251;53.568;10.018;2024-02-26T05:32:56;7.40;92.40
16287;DHT22;8251;53.568;10.018;2024-02-26T05:35:26;7.40;92.50
16287;DHT22;8251;53.568;10.018;2024-02-26T05:38:03;7.40;92.50
16287;DHT22;8251;53.568;10.018;2024-02-26T05:40:31;7.50;92.60
16287;DHT22;8251;53.568;10.018;2024-02-26T05:43:00;7.50;92.70
16287;DHT22;8251;53.568;10.018;2024-02-26T05:45:30;7.50;92.60
16287;DHT22;8251;53.568;10.018;2024-02-26T05:47:57;7.50;92.60
16287;DHT22;8251;53.568;10.018;2024-02-26T05:50:24;7.40;92.60
16287;DHT22;8251;53.568;10.018;2024-02-26T05:53:01;7.50;92.60
16287;DHT22;8251;53.568;10.018;2024-02-26T05:55:36;7.50;92.70
16287;DHT22;8251;53.568;10.018;2024-02-26T05:58:08;7.50;92.70
16287;DHT22;8251;53.568;10.018;2024-02-26T06:00:41;7.50;92.60
16287;DHT22;8251;53.568;10.018;2024-02-26T06:03:09;7.50;92.60
16287;DHT22;8251;53.568;10.018;2024-02-26T06:05:39;7.50;92.70
16287;DHT22;8251;53.568;10.018;2024-02-26T06:08:07;7.50;92.60
16287;DHT22;8251;53.568;10.018;2024-02-26T06:10:34;7.50;92.70
16287;DHT22;8251;53.568;10.018;2024-02-26T06:13:01;7.50;92.70
16287;DHT22;8251;53.568;10.018;2024-02-26T06:15:30;7.50;92.60
16287;DHT22;8251;53.568;10.018;2024-02-26T06:17:57;7.50;92.60
16287;DHT22;8251;53.568;10.018;2024-02-26T06:20:24;7.60;92.80
16287;DHT22;8251;53.568;10.018;2024-02-26T06:22:51;7.60;92.70
16287;DHT22;8251;53.568;10.018;2024-02-26T06:25:18;7.60;92.60
16287;DHT22;8251;53.568;10.018;2024-02-26T06:27:46;7.60;92.60
16287;DHT22;8251;53.568;10.018;2024-02-26T06:30:15;7.60;92.50
16287;DHT22;8251;53.568;10.018;2024-02-26T06:32:44;7.60;92.50
16287;DHT22;8251;53.568;10.018;2024-02-26T06:35:11;7.60;92.50
16287;DHT22;8251;53.568;10.018;2024-02-26T06:37:39;7.50;92.50
16287;DHT22;8251;53.568;10.018;2024-02-26T06:40:07;7.60;92.50
16287;DHT22;8251;53.568;10.018;2024-02-26T06:42:35;7.50;92.50
16287;DHT22;8251;53.568;10.018;2024-02-26T06:45:03;7.50;92.50
16287;DHT22;8251;53.568;10.018;2024-02-26T06:47:31;7.50;92.50
16287;DHT22;8251;53.568;10.018;2024-02-26T06:50:01;7.50;92.50
16287;DHT22;8251;53.568;10.018;2024-02-26T06:52:29;7.50;92.60
16287;DHT22;8251;53.568;10.018;2024-02-26T06:54:56;7.50;92.60
16287;DHT22;8251;53.568;10.018;2024-02-26T06:57:26;7.50;92.60
16287;DHT22;8251;53.568;10.018;2024-02-26T06:59:53;7.50;92.40
16287;DHT22;8251;53.568;10.018;2024-02-26T07:02:21;7.60;92.50
16287;DHT22;8251;53.568;10.018;2024-02-26T07:04:48;7.50;92.80
16287;DHT22;8251;53.568;10.018;2024-02-26T07:07:16;7.60;92.50
16287;DHT22;8251;53.568;10.018;2024-02-26T07:09:44;7.60;92.50
16287;DHT22;8251;53.568;10.018;2024-02-26T07:12:14;7.50;92.80
16287;DHT22;8251;53.568;10.018;2024-02-26T07:14:42;7.60;92.20
16287;DHT22;8251;53.568;10.018;2024-02-26T07:17:11;7.50;92.20
16287;DHT22;8251;53.568;10.018;2024-02-26T07:19:39;7.50;92.20
16287;DHT22;8251;53.568;10.018;2024-02-26T07:22:06;7.50;92.30
16287;DHT22;8251;53.568;10.018;2024-02-26T07:24:36;7.50;92.30
16287;DHT22;8251;53.568;10.018;2024-02-26T07:27:06;7.50;92.30
16287;DHT22;8251;53.568;10.018;2024-02-26T07:29:33;7.50;92.40
16287;DHT22;8251;53.568;10.018;2024-02-26T07:32:00;7.50;92.20
16287;DHT22;8251;53.568;10.018;2024-02-26T07:34:27;7.50;92.10
16287;DHT22;8251;53.568;10.018;2024-02-26T07:36:55;7.50;92.20
16287;DHT22;8251;53.568;10.018;2024-02-26T07:39:23;7.60;92.20
16287;DHT22;8251;53.568;10.018;2024-02-26T07:41:52;7.50;92.20
16287;DHT22;8251;53.568;10.018;2024-02-26T07:44:22;7.60;92.20
16287;DHT22;8251;53.568;10.018;2024-02-26T07:46:49;7.60;92.10
16287;DHT22;8251;53.568;10.018;2024-02-26T07:49:19;7.60;92.20
16287;DHT22;8251;53.568;10.018;2024-02-26T07:51:46;7.60;92.20
16287;DHT22;8251;53.568;10.018;2024-02-26T07:54:17;7.70;92.60
16287;DHT22;8251;53.568;10.018;2024-02-26T07:56:46;7.70;92.30
16287;DHT22;8251;53.568;10.018;2024-02-26T07:59:18;7.80;92.20
16287;DHT22;8251;53.568;10.018;2024-02-26T08:01:52;7.80;92.10
16287;DHT22;8251;53.568;10.018;2024-02-26T08:04:22;7.90;92.10
16287;DHT22;8251;53.568;10.018;2024-02-26T08:06:57;7.90;92.10
16287;DHT22;8251;53.568;10.018;2024-02-26T08:09:29;8.00;92.10
16287;DHT22;8251;53.568;10.018;2024-02-26T08:11:58;8.10;92.00
16287;DHT22;8251;53.568;10.018;2024-02-26T08:14:29;8.10;91.80
16287;DHT22;8251;53.568;10.018;2024-02-26T08:17:01;8.10;91.60
16287;DHT22;8251;53.568;10.018;2024-02-26T08:19:31;8.10;91.80
16287;DHT22;8251;53.568;10.018;2024-02-26T08:21:58;8.20;91.80
16287;DHT22;8251;53.568;10.018;2024-02-26T08:24:25;8.20;91.80
16287;DHT22;8251;53.568;10.018;2024-02-26T08:26:54;8.20;91.80
16287;DHT22;8251;53.568;10.018;2024-02-26T08:29:41;8.30;91.90
16287;DHT22;8251;53.568;10.018;2024-02-26T08:32:08;8.30;91.70
16287;DHT22;8251;53.568;10.018;2024-02-26T08:34:35;8.40;91.70
16287;DHT22;8251;53.568;10.018;2024-02-26T08:37:03;8.30;91.60
16287;DHT22;8251;53.568;10.018;2024-02-26T08:39:31;8.30;91.60
16287;DHT22;8251;53.568;10.018;2024-02-26T08:41:58;8.30;91.60
16287;DHT22;8251;53.568;10.018;2024-02-26T08:44:25;8.30;91.60
16287;DHT22;8251;53.568;10.018;2024-02-26T08:46:54;8.40;91.60
16287;DHT22;8251;53.568;10.018;2024-02-26T08:49:21;8.50;91.70
16287;DHT22;8251;53.568;10.018;2024-02-26T08:51:52;8.50;91.50
16287;DHT22;8251;53.568;10.018;2024-02-26T08:54:19;8.50;91.50
16287;DHT22;8251;53.568;10.018;2024-02-26T08:56:47;8.50;91.50
16287;DHT22;8251;53.568;10.018;2024-02-26T08:59:14;8.50;91.40
16287;DHT22;8251;53.568;10.018;2024-02-26T09:01:42;8.60;91.50
16287;DHT22;8251;53.568;10.018;2024-02-26T09:04:11;8.60;91.50
16287;DHT22;8251;53.568;10.018;2024-02-26T09:06:38;8.70;91.50
16287;DHT22;8251;53.568;10.018;2024-02-26T09:09:05;8.80;91.50
16287;DHT22;8251;53.568;10.018;2024-02-26T09:11:32;8.80;91.30
16287;DHT22;8251;53.568;10.018;2024-02-26T09:13:59;8.80;90.90
16287;DHT22;8251;53.568;10.018;2024-02-26T09:16:26;8.80;91.20
16287;DHT22;8251;53.568;10.018;2024-02-26T09:18:53;8.90;91.10
16287;DHT22;8251;53.568;10.018;2024-02-26T09:21:22;8.90;91.10
16287;DHT22;8251;53.568;10.018;2024-02-26T09:23:50;8.90;91.20
16287;DHT22;8251;53.568;10.018;2024-02-26T09:26:18;9.00;91.20
16287;DHT22;8251;53.568;10.018;2024-02-26T09:28:45;9.00;91.00
16287;DHT22;8251;53.568;10.018;2024-02-26T09:31:12;9.00;90.90
16287;DHT22;8251;53.568;10.018;2024-02-26T09:33:42;9.10;91.00
16287;DHT22;8251;53.568;10.018;2024-02-26T09:36:10;9.10;90.90
16287;DHT22;8251;53.568;10.018;2024-02-26T09:38:39;9.20;90.90
16287;DHT22;8251;53.568;10.018;2024-02-26T09:41:06;9.20;90.90
16287;DHT22;8251;53.568;10.018;2024-02-26T09:43:35;9.20;90.70
16287;DHT22;8251;53.568;10.018;2024-02-26T09:46:08;9.10;90.50
16287;DHT22;8251;53.568;10.018;2024-02-26T09:48:36;9.20;90.90
16287;DHT22;8251;53.568;10.018;2024-02-26T09:51:04;9.20;91.10
16287;DHT22;8251;53.568;10.018;2024-02-26T09:53:33;9.20;91.10
16287;DHT22;8251;53.568;10.018;2024-02-26T09:56:07;9.30;91.20
16287;DHT22;8251;53.568;10.018;2024-02-26T09:58:34;9.30;91.00
16287;DHT22;8251;53.568;10.018;2024-02-26T10:01:02;9.30;91.00
16287;DHT22;8251;53.568;10.018;2024-02-26T10:03:38;9.40;91.00
16287;DHT22;8251;53.568;10.018;2024-02-26T10:06:06;9.50;91.00
16287;DHT22;8251;53.568;10.018;2024-02-26T10:08:35;9.50;90.90
16287;DHT22;8251;53.568;10.018;2024-02-26T10:11:03;9.60;90.80
16287;DHT22;8251;53.568;10.018;2024-02-26T10:13:34;9.60;90.70
16287;DHT22;8251;53.568;10.018;2024-02-26T10:16:02;9.50;90.70
16287;DHT22;8251;53.568;10.018;2024-02-26T10:18:48;9.50;90.70
16287;DHT22;8251;53.568;10.018;2024-02-26T10:21:16;9.50;90.60
16287;DHT22;8251;53.568;10.018;2024-02-26T10:23:44;9.40;90.70
16287;DHT22;8251;53.568;10.018;2024-02-26T10:26:15;9.50;90.70
16287;DHT22;8251;53.568;10.018;2024-02-26T10:28:44;9.40;90.70
16287;DHT22;8251;53.568;10.018;2024-02-26T10:31:17;9.40;90.90
16287;DHT22;8251;53.568;10.018;2024-02-26T10:33:45;9.50;90.90
16287;DHT22;8251;53.568;10.018;2024-02-26T10:36:12;9.50;90.90
16287;DHT22;8251;53.568;10.018;2024-02-26T10:38:39;9.60;90.80
16287;DHT22;8251;53.568;10.018;2024-02-26T10:41:15;9.60;90.80
16287;DHT22;8251;53.568;10.018;2024-02-26T10:43:44;9.70;90.70
16287;DHT22;8251;53.568;10.018;2024-02-26T10:46:11;9.70;90.60
16287;DHT22;8251;53.568;10.018;2024-02-26T10:48:38;9.70;90.70
16287;DHT22;8251;53.568;10.018;2024-02-26T10:51:06;9.70;90.60
16287;DHT22;8251;53.568;10.018;2024-02-26T10:53:36;9.80;90.80
16287;DHT22;8251;53.568;10.018;2024-02-26T10:56:05;9.90;90.70
16287;DHT22;8251;53.568;10.018;2024-02-26T10:58:33;10.00;90.70
16287;DHT22;8251;53.568;10.018;2024-02-26T11:01:03;10.10;90.60
16287;DHT22;8251;53.568;10.018;2024-02-26T11:03:32;10.20;90.50
16287;DHT22;8251;53.568;10.018;2024-02-26T11:06:01;10.30;90.50
16287;DHT22;8251;53.568;10.018;2024-02-26T11:08:30;10.40;90.40
16287;DHT22;8251;53.568;10.018;2024-02-26T11:11:01;10.50;90.30
16287;DHT22;8251;53.568;10.018;2024-02-26T11:13:32;10.50;90.10
16287;DHT22;8251;53.568;10.018;2024-02-26T11:16:06;10.70;90.20
16287;DHT22;8251;53.568;10.018;2024-02-26T11:18:34;10.70;89.70
16287;DHT22;8251;53.568;10.018;2024-02-26T11:21:04;10.80;90.30
16287;DHT22;8251;53.568;10.018;2024-02-26T11:23:34;10.80;89.20
16287;DHT22;8251;53.568;10.018;2024-02-26T11:26:04;10.90;89.20
16287;DHT22;8251;53.568;10.018;2024-02-26T11:28:34;11.00;89.30
16287;DHT22;8251;53.568;10.018;2024-02-26T11:31:05;11.00;88.80
16287;DHT22;8251;53.568;10.018;2024-02-26T11:33:34;11.00;87.90
16287;DHT22;8251;53.568;10.018;2024-02-26T11:36:09;11.00;88.20
16287;DHT22;8251;53.568;10.018;2024-02-26T11:38:37;11.00;88.00
16287;DHT22;8251;53.568;10.018;2024-02-26T11:41:10;11.00;88.20
16287;DHT22;8251;53.568;10.018;2024-02-26T11:43:57;11.00;87.80
16287;DHT22;8251;53.568;10.018;2024-02-26T11:46:28;11.10;88.00
16287;DHT22;8251;53.568;10.018;2024-02-26T11:48:58;11.10;88.20
16287;DHT22;8251;53.568;10.018;2024-02-26T11:51:26;11.10;87.60
16287;DHT22;8251;53.568;10.018;2024-02-26T11:53:54;11.20;87.50
16287;DHT22;8251;53.568;10.018;2024-02-26T11:56:25;11.30;87.80
16287;DHT22;8251;53.568;10.018;2024-02-26T11:58:57;11.30;87.20
16287;DHT22;8251;53.568;10.018;2024-02-26T12:01:44;11.30;87.40
16287;DHT22;8251;53.568;10.018;2024-02-26T12:04:16;11.30;86.80
16287;DHT22;8251;53.568;10.018;2024-02-26T12:06:50;11.30;86.90
16287;DHT22;8251;53.568;10.018;2024-02-26T12:09:35;11.30;87.00
16287;DHT22;8251;53.568;10.018;2024-02-26T12:12:03;11.30;86.90
16287;DHT22;8251;53.568;10.018;2024-02-26T12:14:33;11.20;87.10
16287;DHT22;8251;53.568;10.018;2024-02-26T12:17:04;11.10;87.20
16287;DHT22;8251;53.568;10.018;2024-02-26T12:19:36;11.00;88.00
16287;DHT22;8251;53.568;10.018;2024-02-26T12:22:07;11.00;88.00
16287;DHT22;8251;53.568;10.018;2024-02-26T12:24:37;11.10;88.30
16287;DHT22;8251;53.568;10.018;2024-02-26T12:27:04;11.10;87.60
16287;DHT22;8251;53.568;10.018;2024-02-26T12:29:31;11.20;88.00
16287;DHT22;8251;53.568;10.018;2024-02-26T12:31:58;11.30;88.20
16287;DHT22;8251;53.568;10.018;2024-02-26T12:34:27;11.30;88.00
16287;DHT22;8251;53.568;10.018;2024-02-26T12:36:57;11.40;87.90
16287;DHT22;8251;53.568;10.018;2024-02-26T12:39:24;11.50;87.70
16287;DHT22;8251;53.568;10.018;2024-02-26T12:41:52;11.60;87.80
16287;DHT22;8251;53.568;10.018;2024-02-26T12:44:24;11.60;87.40
16287;DHT22;8251;53.568;10.018;2024-02-26T12:46:59;11.60;87.00
16287;DHT22;8251;53.568;10.018;2024-02-26T12:49:28;11.60;86.50
16287;DHT22;8251;53.568;10.018;2024-02-26T12:51:56;11.60;86.90
16287;DHT22;8251;53.568;10.018;2024-02-26T12:54:32;11.50;86.30
16287;DHT22;8251;53.568;10.018;2024-02-26T12:57:02;11.40;86.30
16287;DHT22;8251;53.568;10.018;2024-02-26T12:59:32;11.50;86.50
16287;DHT22;8251;53.568;10.018;2024-02-26T13:02:01;11.50;85.90
16287;DHT22;8251;53.568;10.018;2024-02-26T13:04:31;11.40;86.00
16287;DHT22;8251;53.568;10.018;2024-02-26T13:06:58;11.40;86.10
16287;DHT22;8251;53.568;10.018;2024-02-26T13:09:30;11.40;86.20
16287;DHT22;8251;53.568;10.018;2024-02-26T13:12:06;11.40;86.30
16287;DHT22;8251;53.568;10.018;2024-02-26T13:14:33;11.30;85.90
16287;DHT22;8251;53.568;10.018;2024-02-26T13:17:04;11.30;86.10
16287;DHT22;8251;53.568;10.018;2024-02-26T13:19:32;11.40;86.50
16287;DHT22;8251;53.568;10.018;2024-02-26T13:22:04;11.50;86.80
16287;DHT22;8251;53.568;10.018;2024-02-26T13:24:32;11.50;86.50
16287;DHT22;8251;53.568;10.018;2024-02-26T13:27:05;11.60;86.60
16287;DHT22;8251;53.568;10.018;2024-02-26T13:29:36;11.60;86.30
16287;DHT22;8251;53.568;10.018;2024-02-26T13:32:04;11.70;86.30
16287;DHT22;8251;53.568;10.018;2024-02-26T13:34:33;11.70;85.80
16287;DHT22;8251;53.568;10.018;2024-02-26T13:37:01;11.70;85.70
16287;DHT22;8251;53.568;10.018;2024-02-26T13:39:29;11.70;86.20
16287;DHT22;8251;53.568;10.018;2024-02-26T13:41:56;11.80;86.10
16287;DHT22;8251;53.568;10.018;2024-02-26T13:44:23;11.80;85.60
16287;DHT22;8251;53.568;10.018;2024-02-26T13:46:50;11.90;85.40
16287;DHT22;8251;53.568;10.018;2024-02-26T13:49:17;12.00;84.80
16287;DHT22;8251;53.568;10.018;2024-02-26T13:51:45;12.00;84.80
16287;DHT22;8251;53.568;10.018;2024-02-26T13:54:12;12.10;84.80
16287;DHT22;8251;53.568;10.018;2024-02-26T13:56:40;12.10;84.20
16287;DHT22;8251;53.568;10.018;2024-02-26T13:59:07;12.20;84.20
16287;DHT22;8251;53.568;10.018;2024-02-26T14:01:34;12.20;83.80
16287;DHT22;8251;53.568;10.018;2024-02-26T14:04:01;12.20;83.60
16287;DHT22;8251;53.568;10.018;2024-02-26T14:06:30;12.10;83.50
16287;DHT22;8251;53.568;10.018;2024-02-26T14:08:59;12.10;83.60
16287;DHT22;8251;53.568;10.018;2024-02-26T14:11:26;12.10;83.90
16287;DHT22;8251;53.568;10.018;2024-02-26T14:13:54;12.10;83.90
16287;DHT22;8251;53.568;10.018;2024-02-26T14:16:21;12.10;83.80
16287;DHT22;8251;53.568;10.018;2024-02-26T14:18:51;12.00;83.30
16287;DHT22;8251;53.568;10.018;2024-02-26T14:21:18;12.00;83.80
16287;DHT22;8251;53.568;10.018;2024-02-26T14:23:46;12.00;84.20
16287;DHT22;8251;53.568;10.018;2024-02-26T14:26:17;11.90;84.10
16287;DHT22;8251;53.568;10.018;2024-02-26T14:28:44;11.90;84.20
16287;DHT22;8251;53.568;10.018;2024-02-26T14:31:12;11.90;84.40
16287;DHT22;8251;53.568;10.018;2024-02-26T14:33:39;11.80;84.30
16287;DHT22;8251;53.568;10.018;2024-02-26T14:36:06;11.80;84.30
16287;DHT22;8251;53.568;10.018;2024-02-26T14:38:34;11.90;84.50
16287;DHT22;8251;53.568;10.018;2024-02-26T14:41:02;11.90;84.60
16287;DHT22;8251;53.568;10.018;2024-02-26T14:43:33;11.90;84.70
16287;DHT22;8251;53.568;10.018;2024-02-26T14:46:01;11.80;84.00
16287;DHT22;8251;53.568;10.018;2024-02-26T14:48:28;11.70;84.50
16287;DHT22;8251;53.568;10.018;2024-02-26T14:50:57;11.70;84.60
16287;DHT22;8251;53.568;10.018;2024-02-26T14:53:25;11.60;84.80
16287;DHT22;8251;53.568;10.018;2024-02-26T14:55:52;11.60;85.10
16287;DHT22;8251;53.568;10.018;2024-02-26T14:58:19;11.50;85.20
16287;DHT22;8251;53.568;10.018;2024-02-26T15:00:47;11.50;85.40
16287;DHT22;8251;53.568;10.018;2024-02-26T15:03:15;11.50;85.70
16287;DHT22;8251;53.568;10.018;2024-02-26T15:05:43;11.40;85.80
16287;DHT22;8251;53.568;10.018;2024-02-26T15:08:10;11.40;85.80
16287;DHT22;8251;53.568;10.018;2024-02-26T15:10:40;11.40;86.10
16287;DHT22;8251;53.568;10.018;2024-02-26T15:13:12;11.40;86.30
16287;DHT22;8251;53.568;10.018;2024-02-26T15:15:40;11.40;86.30
16287;DHT22;8251;53.568;10.018;2024-02-26T15:18:09;11.30;85.90
16287;DHT22;8251;53.568;10.018;2024-02-26T15:20:44;11.30;86.10
16287;DHT22;8251;53.568;10.018;2024-02-26T15:23:11;11.30;86.10
16287;DHT22;8251;53.568;10.018;2024-02-26T15:25:42;11.20;86.10
16287;DHT22;8251;53.568;10.018;2024-02-26T15:28:12;11.00;86.20
16287;DHT22;8251;53.568;10.018;2024-02-26T15:30:43;11.00;86.50
16287;DHT22;8251;53.568;10.018;2024-02-26T15:33:12;10.90;86.80
16287;DHT22;8251;53.568;10.018;2024-02-26T15:35:40;10.90;87.00
16287;DHT22;8251;53.568;10.018;2024-02-26T15:38:08;10.90;87.00
16287;DHT22;8251;53.568;10.018;2024-02-26T15:40:35;10.80;87.00
16287;DHT22;8251;53.568;10.018;2024-02-26T15:43:02;10.70;87.10
16287;DHT22;8251;53.568;10.018;2024-02-26T15:45:32;10.70;87.40
16287;DHT22;8251;53.568;10.018;2024-02-26T15:48:02;10.60;87.50
16287;DHT22;8251;53.568;10.018;2024-02-26T15:50:45;10.60;87.90
16287;DHT22;8251;53.568;10.018;2024-02-26T15:53:27;10.60;87.80
16287;DHT22;8251;53.568;10.018;2024-02-26T15:56:10;10.50;88.00